SEAS weather

Ascazubi Airport
Ascazubi, Pichincha Province, Ecuador

Public forecast

Using degrees Celsius for public forecast. Weather courtesy of forecast.io.

METAR (pilot weather report)

Closest report is Mariscal Sucre International Airport, 5.2 nm (9.7 km) WSW. Retrieved 2019/08/17 12:00 UTC (53 minutes ago):

SEQM 171200Z 11003KT 9999 SCT040 BKN100 10/05 Q1028 NOSIG RMK A3037

TAF (pilot weather forecast)

Forecast is more than 12 hours old.

Closest forecast is Mariscal Sucre International Airport, 5.2 nm (9.7 km) WSW. Retrieved 2019/08/16 00:40 UTC (2 days ago):

TAF SEQM 162230Z 1700/1724 VRB03KT 9999 SCT030 BKN080 BECMG 1712/1714 FEW040 BKN080 BECMG 1718/1719 20010KT SCT040 BKN080 TX23/1719Z TN09/1711Z